Time;durP1;ratioP1;P1;durP2;ratioP2;P2;SDS_P1;SDS_P2;PMS_P1;PMS_P2;Temp;Humidity;BMP_temperature;BMP_pressure;BME280_temperature;BME280_humidity;BME280_pressure;Samples;Min_cycle;Max_cycle;Signal;HPM_P1;HPM_P2
2022/11/27 00:01:37;;;;;;;19.90;5.60;;;;;;;6.82;100.00;102302.16;5021856;28;20033;-69
2022/11/27 00:04:03;;;;;;;14.18;5.40;;;;;;;6.80;100.00;102288.13;5017772;28;20433;-69
2022/11/27 00:06:29;;;;;;;10.82;4.07;;;;;;;6.83;100.00;102287.38;5011611;28;20026;-68
2022/11/27 00:08:56;;;;;;;10.63;4.20;;;;;;;6.87;100.00;102278.88;5015600;28;20018;-68
2022/11/27 00:11:24;;;;;;;16.77;4.60;;;;;;;6.82;100.00;102269.88;5022053;28;20520;-69
2022/11/27 00:13:49;;;;;;;10.23;3.85;;;;;;;6.83;100.00;102266.47;5019049;28;20444;-69
2022/11/27 00:16:16;;;;;;;17.40;4.82;;;;;;;6.85;100.00;102263.13;5018671;28;20056;-69
2022/11/27 00:18:42;;;;;;;9.18;3.65;;;;;;;6.84;100.00;102252.56;5021651;28;20433;-69
2022/11/27 00:21:11;;;;;;;17.67;4.60;;;;;;;6.77;100.00;102247.78;5019525;28;20096;-69
2022/11/27 00:23:36;;;;;;;11.55;4.15;;;;;;;6.77;100.00;102250.41;5026795;28;20026;-70
2022/11/27 00:26:04;;;;;;;15.70;3.53;;;;;;;6.80;100.00;102237.53;5012643;28;20057;-69
2022/11/27 00:28:30;;;;;;;11.30;3.67;;;;;;;6.78;100.00;102231.28;5018458;28;20030;-68
2022/11/27 00:31:05;;;;;;;18.20;3.95;;;;;;;6.78;100.00;102239.13;5021975;28;20105;-69
2022/11/27 00:33:31;;;;;;;12.35;3.65;;;;;;;6.78;100.00;102237.41;5017088;28;20033;-69
2022/11/27 00:36:01;;;;;;;17.55;3.55;;;;;;;6.79;100.00;102259.25;5015830;28;20025;-69
2022/11/27 00:38:26;;;;;;;10.95;3.90;;;;;;;6.74;100.00;102254.69;5013901;28;20040;-69
2022/11/27 00:40:51;;;;;;;17.08;4.38;;;;;;;6.84;100.00;102249.94;5014729;28;20025;-70
2022/11/27 00:43:17;;;;;;;12.15;3.17;;;;;;;6.89;100.00;102240.59;5016247;28;20458;-69
2022/11/27 00:45:42;;;;;;;10.35;4.18;;;;;;;6.91;100.00;102245.09;5017455;28;20112;-69
2022/11/27 00:48:07;;;;;;;13.07;3.70;;;;;;;6.90;100.00;102247.66;5014851;28;20030;-69
2022/11/27 00:50:33;;;;;;;12.00;3.78;;;;;;;6.91;100.00;102244.22;5018667;28;20083;-68
2022/11/27 00:52:58;;;;;;;14.52;3.80;;;;;;;6.88;100.00;102255.41;5014500;28;20444;-69
2022/11/27 00:55:24;;;;;;;10.57;3.28;;;;;;;6.94;100.00;102244.38;5020930;28;20036;-69
2022/11/27 00:57:49;;;;;;;11.27;3.92;;;;;;;6.91;100.00;102237.25;5019537;28;20022;-69
2022/11/27 01:00:15;;;;;;;14.63;3.75;;;;;;;6.90;100.00;102237.19;4985445;28;1074578;-69
2022/11/27 01:02:41;;;;;;;19.67;3.80;;;;;;;6.91;100.00;102233.75;5024319;28;20048;-68
2022/11/27 01:05:07;;;;;;;12.30;4.07;;;;;;;6.91;100.00;102233.75;5018214;28;20100;-69
2022/11/27 01:07:32;;;;;;;21.08;4.38;;;;;;;6.95;100.00;102230.50;5023067;28;20042;-68
2022/11/27 01:09:57;;;;;;;16.13;3.55;;;;;;;6.93;100.00;102237.34;5026822;28;20500;-70
2022/11/27 01:12:22;;;;;;;12.48;3.92;;;;;;;6.90;100.00;102237.19;5016045;28;20037;-69
2022/11/27 01:14:48;;;;;;;12.45;3.45;;;;;;;6.89;100.00;102231.06;5015088;28;20137;-69
2022/11/27 01:17:13;;;;;;;12.02;3.60;;;;;;;6.91;100.00;102228.53;5021148;28;20432;-70
2022/11/27 01:19:38;;;;;;;13.48;4.18;;;;;;;6.92;100.00;102235.56;5017119;28;20080;-68
2022/11/27 01:22:04;;;;;;;13.98;3.78;;;;;;;6.92;100.00;102227.72;5022173;28;20075;-68
2022/11/27 01:24:29;;;;;;;14.65;3.88;;;;;;;6.91;100.00;102218.94;5028264;28;20377;-69
2022/11/27 01:26:54;;;;;;;11.55;4.25;;;;;;;6.91;100.00;102202.34;5013553;28;20101;-68
2022/11/27 01:29:19;;;;;;;13.95;3.95;;;;;;;6.86;100.00;102194.28;5020961;28;20030;-69
2022/11/27 01:31:45;;;;;;;10.73;3.25;;;;;;;6.91;100.00;102184.03;5016874;28;20034;-69
2022/11/27 01:34:15;;;;;;;17.50;4.00;;;;;;;6.89;100.00;102185.66;5024503;28;20044;-68
2022/11/27 01:36:40;;;;;;;17.02;3.65;;;;;;;6.89;100.00;102178.72;5020281;28;20025;-68
2022/11/27 01:39:06;;;;;;;19.77;4.43;;;;;;;6.85;100.00;102181.09;5015419;28;20026;-68
2022/11/27 01:41:34;;;;;;;11.07;3.40;;;;;;;6.82;100.00;102176.59;5024843;28;20095;-68
2022/11/27 01:44:19;;;;;;;15.75;3.65;;;;;;;6.83;100.00;102161.81;5017531;28;20026;-70
2022/11/27 01:46:51;;;;;;;15.95;3.90;;;;;;;6.81;100.00;102152.97;5026319;28;20477;-68
2022/11/27 01:49:30;;;;;;;10.32;3.72;;;;;;;6.79;100.00;102158.13;5013526;28;20034;-68
2022/11/27 01:52:30;;;;;;;12.80;3.60;;;;;;;6.80;100.00;102162.53;5018331;28;20029;-68
2022/11/27 01:55:01;;;;;;;12.75;3.50;;;;;;;6.78;100.00;102158.03;5018162;28;20043;-67
2022/11/27 01:57:37;;;;;;;13.45;3.95;;;;;;;6.80;100.00;102166.88;5032499;28;20151;-68
2022/11/27 02:00:05;;;;;;;14.10;3.33;;;;;;;6.82;100.00;102154.75;5024541;28;20136;-68
2022/11/27 02:02:30;;;;;;;13.20;3.40;;;;;;;6.80;100.00;102151.19;5026528;28;20033;-69
2022/11/27 02:04:56;;;;;;;12.00;3.53;;;;;;;6.77;100.00;102138.84;5027746;28;20083;-69
2022/11/27 02:07:21;;;;;;;18.98;3.88;;;;;;;6.82;100.00;102139.94;5022758;28;20033;-68
2022/11/27 02:09:46;;;;;;;10.23;3.47;;;;;;;6.83;100.00;102143.50;5028009;28;20086;-68
2022/11/27 02:12:23;;;;;;;13.05;3.72;;;;;;;6.82;100.00;102147.81;5022087;28;20044;-67
2022/11/27 02:15:15;;;;;;;14.73;3.40;;;;;;;6.87;100.00;102153.28;5015901;28;20044;-69
2022/11/27 02:18:02;;;;;;;13.40;3.50;;;;;;;6.87;100.00;102148.94;5030163;28;20030;-68
2022/11/27 02:20:34;;;;;;;11.77;3.70;;;;;;;6.89;100.00;102152.56;5026737;28;20033;-68
2022/11/27 02:23:05;;;;;;;9.13;3.05;;;;;;;6.89;100.00;102144.72;5025963;28;20421;-69
2022/11/27 02:25:55;;;;;;;10.68;2.92;;;;;;;6.90;100.00;102148.22;5023333;28;20026;-67
2022/11/27 02:28:42;;;;;;;12.05;3.13;;;;;;;6.90;100.00;102148.22;5022569;28;20171;-70
2022/11/27 02:31:21;;;;;;;14.07;4.45;;;;;;;6.88;100.00;102155.09;5022169;28;20022;-69
2022/11/27 02:33:57;;;;;;;21.10;4.10;;;;;;;6.87;100.00;102153.28;5021477;28;20340;-68
2022/11/27 02:36:28;;;;;;;17.10;3.80;;;;;;;6.89;100.00;102151.66;5014244;28;20084;-69
2022/11/27 02:39:01;;;;;;;9.05;3.08;;;;;;;6.88;100.00;102149.88;5019133;28;20026;-68
2022/11/27 02:41:39;;;;;;;11.88;3.50;;;;;;;6.90;100.00;102138.66;5029439;28;20372;-67
2022/11/27 02:44:08;;;;;;;14.27;4.22;;;;;;;6.92;100.00;102138.75;5019129;28;20036;-68
2022/11/27 02:46:34;;;;;;;12.35;3.53;;;;;;;6.90;100.00;102136.06;5015294;28;20025;-67
2022/11/27 02:49:09;;;;;;;17.52;3.60;;;;;;;6.92;100.00;102128.28;5016153;28;20448;-68
2022/11/27 02:51:40;;;;;;;11.45;4.03;;;;;;;6.94;100.00;102133.59;5031339;28;20466;-68
2022/11/27 02:54:11;;;;;;;13.57;3.45;;;;;;;6.96;100.00;102116.22;5027681;28;20018;-69
2022/11/27 02:56:39;;;;;;;13.93;3.70;;;;;;;6.94;100.00;102129.25;5027436;28;20075;-68
2022/11/27 02:59:10;;;;;;;15.07;3.17;;;;;;;6.98;100.00;102128.59;5020495;28;20034;-68
2022/11/27 03:01:41;;;;;;;13.48;3.63;;;;;;;6.97;100.00;102137.25;5013401;28;20025;-68
2022/11/27 03:04:15;;;;;;;15.30;3.17;;;;;;;6.92;100.00;102146.59;5022069;28;20124;-69
2022/11/27 03:06:44;;;;;;;11.95;2.92;;;;;;;6.95;100.00;102141.50;5017070;28;20524;-68
2022/11/27 03:09:26;;;;;;;11.80;3.40;;;;;;;6.94;100.00;102137.09;5012505;28;20026;-68
2022/11/27 03:11:53;;;;;;;15.05;3.47;;;;;;;6.94;100.00;102129.25;5013864;28;20029;-68
2022/11/27 03:14:23;;;;;;;17.52;3.80;;;;;;;6.98;100.00;102131.19;5018917;28;20068;-69
2022/11/27 03:16:54;;;;;;;12.93;3.30;;;;;;;6.98;100.00;102125.97;5013980;28;20022;-68
2022/11/27 03:19:37;;;;;;;10.13;3.40;;;;;;;6.97;100.00;102118.94;5020964;28;20041;-67
2022/11/27 03:22:03;;;;;;;9.82;3.42;;;;;;;6.91;100.00;102105.53;5022835;28;20030;-68
2022/11/27 03:24:30;;;;;;;8.88;3.33;;;;;;;6.99;100.00;102105.94;5024452;28;20036;-70
2022/11/27 03:26:57;;;;;;;8.93;3.20;;;;;;;6.96;100.00;102111.00;5016818;28;20025;-69
2022/11/27 03:29:41;;;;;;;9.90;3.53;;;;;;;6.97;100.00;102121.53;5017292;28;20079;-67
2022/11/27 03:32:07;;;;;;;17.63;3.35;;;;;;;6.96;100.00;102116.22;5017691;28;20025;-69
2022/11/27 03:34:32;;;;;;;9.20;3.13;;;;;;;6.97;100.00;102111.06;5017625;28;20037;-68
2022/11/27 03:36:58;;;;;;;11.30;3.22;;;;;;;6.99;100.00;102112.06;5013089;28;20394;-68
2022/11/27 03:39:24;;;;;;;12.73;3.38;;;;;;;6.95;100.00;102101.38;5023444;28;20133;-67
2022/11/27 03:41:59;;;;;;;8.38;2.92;;;;;;;7.00;100.00;102103.41;5022881;28;20022;-68
2022/11/27 03:44:56;;;;;;;18.83;3.55;;;;;;;6.99;100.00;102101.59;5019696;28;20048;-68
2022/11/27 03:47:38;;;;;;;13.68;2.75;;;;;;;7.03;100.00;102102.66;5020540;28;20084;-67
2022/11/27 03:50:23;;;;;;;10.35;2.80;;;;;;;6.99;100.00;102090.25;5020558;28;20107;-68
2022/11/27 03:52:59;;;;;;;12.93;3.22;;;;;;;7.07;100.00;102092.41;5024584;28;20520;-67
2022/11/27 03:55:31;;;;;;;11.15;3.00;;;;;;;7.08;100.00;102093.31;5016080;28;20036;-68
2022/11/27 03:58:30;;;;;;;16.33;3.05;;;;;;;7.09;100.00;102103.88;5013778;28;20022;-67
2022/11/27 04:00:59;;;;;;;6.07;2.70;;;;;;;7.07;100.00;102102.88;5012560;28;20120;-69
2022/11/27 04:03:27;;;;;;;15.02;3.15;;;;;;;7.06;100.00;102103.69;5016824;28;20488;-68
2022/11/27 04:05:53;;;;;;;10.40;2.88;;;;;;;7.11;100.00;102100.41;5013825;28;20021;-68
2022/11/27 04:08:18;;;;;;;12.25;3.13;;;;;;;7.08;100.00;102106.38;5013371;28;20038;-68
2022/11/27 04:10:44;;;;;;;10.55;3.00;;;;;;;7.12;100.00;102090.03;5015841;28;20357;-68
2022/11/27 04:13:09;;;;;;;10.18;2.55;;;;;;;7.11;100.00;102090.88;5024144;28;20075;-67
2022/11/27 04:15:34;;;;;;;10.68;3.50;;;;;;;7.09;100.00;102096.03;5013426;28;20112;-67
2022/11/27 04:18:00;;;;;;;12.98;3.08;;;;;;;7.08;100.00;102090.69;5016595;28;20042;-69
2022/11/27 04:20:25;;;;;;;8.23;2.30;;;;;;;7.01;100.00;102093.81;5019237;28;20116;-68
2022/11/27 04:22:50;;;;;;;10.80;2.95;;;;;;;6.96;100.00;102090.06;5025196;28;20027;-68
2022/11/27 04:25:16;;;;;;;12.85;3.83;;;;;;;6.94;100.00;102097.84;5021617;28;20385;-67
2022/11/27 04:27:41;;;;;;;18.88;3.25;;;;;;;6.90;100.00;102090.66;5022845;28;20033;-68
2022/11/27 04:30:07;;;;;;;16.20;3.80;;;;;;;6.83;100.00;102093.78;5012069;28;20025;-68
2022/11/27 04:32:33;;;;;;;15.25;3.88;;;;;;;6.80;100.00;102088.41;5018061;28;20037;-69
2022/11/27 04:34:58;;;;;;;15.15;3.85;;;;;;;6.70;100.00;102085.28;5020308;28;20100;-69
2022/11/27 04:37:24;;;;;;;13.32;3.20;;;;;;;6.64;100.00;102082.34;5018161;28;20029;-68
2022/11/27 04:39:49;;;;;;;12.00;2.70;;;;;;;6.65;100.00;102078.03;5011664;28;20029;-67
2022/11/27 04:42:14;;;;;;;7.05;2.80;;;;;;;6.67;100.00;102071.16;5015902;28;20557;-68
2022/11/27 04:44:39;;;;;;;14.18;3.92;;;;;;;6.65;100.00;102058.00;5022128;28;20057;-68
2022/11/27 04:47:05;;;;;;;9.25;2.78;;;;;;;6.67;100.00;102050.22;5022148;28;20041;-69
2022/11/27 04:49:30;;;;;;;6.63;2.67;;;;;;;6.64;100.00;102060.53;5023012;28;20036;-69
2022/11/27 04:51:55;;;;;;;16.67;3.10;;;;;;;6.61;100.00;102061.28;5014752;28;20025;-68
2022/11/27 04:54:21;;;;;;;11.70;3.33;;;;;;;6.59;100.00;102068.13;5021885;28;20043;-69
2022/11/27 04:56:46;;;;;;;12.55;4.15;;;;;;;6.60;100.00;102066.41;5018706;28;20426;-68
2022/11/27 04:59:11;;;;;;;10.45;2.88;;;;;;;6.57;100.00;102061.94;5025749;28;20126;-68
2022/11/27 05:01:37;;;;;;;12.45;2.92;;;;;;;6.51;100.00;102053.75;5013369;28;20032;-68
2022/11/27 05:04:02;;;;;;;13.20;2.92;;;;;;;6.50;100.00;102046.75;5019665;28;20033;-69
2022/11/27 05:06:27;;;;;;;5.50;2.83;;;;;;;6.52;100.00;102050.31;5018843;28;20500;-68
2022/11/27 05:08:58;;;;;;;10.52;2.75;;;;;;;6.54;100.00;102048.69;5012187;28;20065;-67
2022/11/27 05:11:24;;;;;;;8.65;3.05;;;;;;;6.56;100.00;102041.81;5025953;28;20053;-68
2022/11/27 05:14:13;;;;;;;14.50;3.03;;;;;;;6.55;100.00;102043.53;5024782;28;20755;-70
2022/11/27 05:16:34;;;;;;;14.30;3.20;;;;;;;6.57;100.00;102048.84;5022854;28;20065;-68
2022/11/27 05:19:00;;;;;;;9.18;2.67;;;;;;;6.55;100.00;102032.16;5014470;28;20030;-68
2022/11/27 05:21:25;;;;;;;10.93;3.00;;;;;;;6.56;100.00;102037.47;5012503;28;20033;-68
2022/11/27 05:23:50;;;;;;;12.52;3.20;;;;;;;6.57;100.00;102038.41;5020454;28;20401;-68
2022/11/27 05:26:16;;;;;;;11.98;3.33;;;;;;;6.57;100.00;102038.41;5018159;28;20025;-69
2022/11/27 05:28:41;;;;;;;8.60;2.90;;;;;;;6.57;100.00;102025.31;5023647;28;20029;-67
2022/11/27 05:31:06;;;;;;;5.85;2.08;;;;;;;6.57;100.00;102030.53;5016327;28;20038;-69
2022/11/27 05:33:31;;;;;;;10.02;3.13;;;;;;;6.58;100.00;102024.50;5022174;28;20029;-67
2022/11/27 05:35:57;;;;;;;8.18;2.90;;;;;;;6.61;100.00;102018.53;5019398;28;20469;-69
2022/11/27 05:38:22;;;;;;;7.20;2.97;;;;;;;6.54;100.00;102017.31;5026836;28;20028;-69
2022/11/27 05:40:47;;;;;;;6.78;2.60;;;;;;;6.48;100.00;102030.06;5021930;28;20021;-67
2022/11/27 05:43:13;;;;;;;12.18;2.70;;;;;;;6.48;100.00;102027.44;5020933;28;20143;-69
2022/11/27 05:45:38;;;;;;;9.25;2.97;;;;;;;6.52;100.00;102021.56;5017680;28;20041;-68
2022/11/27 05:48:04;;;;;;;11.85;2.95;;;;;;;6.52;100.00;102008.47;5019264;28;20033;-69
2022/11/27 05:50:29;;;;;;;9.07;2.50;;;;;;;6.51;100.00;102007.59;5029927;28;20029;-69
2022/11/27 05:52:54;;;;;;;7.30;3.00;;;;;;;6.48;100.00;102003.91;5026121;28;20021;-68
2022/11/27 05:55:19;;;;;;;10.18;2.45;;;;;;;6.39;100.00;102001.72;5022395;28;20065;-68
2022/11/27 05:57:45;;;;;;;10.20;2.88;;;;;;;6.45;100.00;102002.03;5020753;28;20017;-68
2022/11/27 06:00:11;;;;;;;15.65;3.72;;;;;;;6.40;100.00;102008.72;5021985;28;20052;-70
2022/11/27 06:02:36;;;;;;;8.75;3.05;;;;;;;6.38;100.00;101998.19;5031120;28;20029;-69
2022/11/27 06:05:01;;;;;;;6.35;3.17;;;;;;;6.43;100.00;101997.53;5025997;28;20032;-69
2022/11/27 06:07:27;;;;;;;8.95;2.45;;;;;;;6.43;100.00;101989.69;5022874;28;20026;-69
2022/11/27 06:09:52;;;;;;;6.32;2.60;;;;;;;6.41;100.00;101990.50;5025828;28;20355;-67
2022/11/27 06:12:17;;;;;;;8.15;2.20;;;;;;;6.37;100.00;101993.78;5018297;28;20025;-68
2022/11/27 06:14:43;;;;;;;9.35;2.50;;;;;;;6.36;100.00;101992.00;5025325;28;20052;-67
2022/11/27 06:17:08;;;;;;;12.50;2.88;;;;;;;6.39;100.00;102001.72;5019201;28;20685;-69
2022/11/27 06:19:33;;;;;;;4.78;2.13;;;;;;;6.37;100.00;101999.00;5016113;28;20069;-68
2022/11/27 06:21:58;;;;;;;11.82;3.00;;;;;;;6.35;100.00;101990.19;5022960;28;20091;-69
2022/11/27 06:24:24;;;;;;;7.85;2.63;;;;;;;6.36;100.00;101988.47;5021330;28;20030;-68
2022/11/27 06:26:49;;;;;;;9.48;2.55;;;;;;;6.32;100.00;101974.38;5017451;28;20026;-69
2022/11/27 06:29:14;;;;;;;9.80;2.67;;;;;;;6.35;100.00;101974.53;5025086;28;20036;-68
2022/11/27 06:31:40;;;;;;;7.85;2.92;;;;;;;6.37;100.00;101975.47;5023966;28;20493;-70
2022/11/27 06:34:05;;;;;;;6.97;2.47;;;;;;;6.32;100.00;101969.13;5024383;28;20056;-68
2022/11/27 06:36:34;;;;;;;6.07;2.42;;;;;;;6.32;100.00;101973.44;5024845;28;20057;-70
2022/11/27 06:38:59;;;;;;;13.55;2.38;;;;;;;6.36;100.00;101965.88;5017930;28;20055;-68
2022/11/27 06:41:26;;;;;;;9.60;2.72;;;;;;;6.32;100.00;101963.91;5017719;28;20096;-70
2022/11/27 06:43:53;;;;;;;10.75;2.42;;;;;;;6.32;100.00;101958.69;5025244;28;21122;-68
2022/11/27 06:46:20;;;;;;;7.82;2.35;;;;;;;6.34;100.00;101946.56;5018982;28;20121;-68
2022/11/27 06:48:47;;;;;;;9.85;2.13;;;;;;;6.32;100.00;101953.47;5021119;28;20022;-69
2022/11/27 06:51:15;;;;;;;8.52;2.47;;;;;;;6.35;100.00;101948.38;5017150;28;20072;-68
2022/11/27 06:53:42;;;;;;;7.47;2.00;;;;;;;6.37;100.00;101941.50;5022826;28;20025;-69
2022/11/27 06:56:10;;;;;;;4.38;1.90;;;;;;;6.34;100.00;101936.13;5021639;28;20104;-69
2022/11/27 06:58:36;;;;;;;3.92;1.98;;;;;;;6.33;100.00;101939.53;5014207;28;20538;-67
2022/11/27 07:01:03;;;;;;;6.72;2.45;;;;;;;6.32;100.00;101927.31;5022750;28;20181;-68
2022/11/27 07:03:29;;;;;;;6.50;2.00;;;;;;;6.32;100.00;101926.41;5023144;28;20037;-68
2022/11/27 07:05:54;;;;;;;5.70;1.80;;;;;;;6.32;100.00;101916.84;5022580;28;20037;-68
2022/11/27 07:08:21;;;;;;;7.85;1.90;;;;;;;6.30;100.00;101908.03;5018622;28;20025;-69
2022/11/27 07:10:46;;;;;;;4.72;1.73;;;;;;;6.30;100.00;101902.78;5021973;28;20531;-69
2022/11/27 07:13:11;;;;;;;7.95;2.10;;;;;;;6.31;100.00;101915.06;5014701;28;20128;-69
2022/11/27 07:15:37;;;;;;;8.18;2.17;;;;;;;6.28;100.00;101907.06;5016102;28;20034;-68
2022/11/27 07:18:02;;;;;;;9.27;2.28;;;;;;;6.30;100.00;101917.59;5021879;28;20508;-70
2022/11/27 07:20:28;;;;;;;8.90;2.25;;;;;;;6.29;100.00;101906.22;5021501;28;20352;-68
2022/11/27 07:22:54;;;;;;;6.85;1.80;;;;;;;6.28;100.00;101909.69;5020659;28;20030;-69
2022/11/27 07:25:19;;;;;;;4.85;2.35;;;;;;;6.30;100.00;101897.56;5019479;28;20030;-69
2022/11/27 07:27:44;;;;;;;10.43;2.70;;;;;;;6.26;100.00;101894.72;5024088;28;20409;-70
2022/11/27 07:30:10;;;;;;;6.60;2.00;;;;;;;6.31;100.00;101904.59;5019662;28;20018;-70
2022/11/27 07:32:35;;;;;;;9.63;2.17;;;;;;;6.39;100.00;101902.38;5023093;28;20108;-69
2022/11/27 07:35:01;;;;;;;5.55;1.98;;;;;;;6.39;100.00;101894.53;5022199;28;20032;-69
2022/11/27 07:37:30;;;;;;;5.25;2.15;;;;;;;6.42;100.00;101899.91;5026388;28;20028;-69
2022/11/27 07:39:55;;;;;;;5.00;2.22;;;;;;;6.42;100.00;101899.91;5014725;28;20432;-69
2022/11/27 07:42:20;;;;;;;7.90;2.10;;;;;;;6.44;100.00;101900.88;5022997;28;20018;-69
2022/11/27 07:44:45;;;;;;;5.88;2.20;;;;;;;6.39;100.00;101911.13;5020943;28;20160;-69
2022/11/27 07:47:11;;;;;;;6.28;2.30;;;;;;;6.41;100.00;101903.34;5023146;28;20033;-68
2022/11/27 07:49:36;;;;;;;8.30;2.92;;;;;;;6.44;100.00;101900.88;5022021;28;20044;-69
2022/11/27 07:52:01;;;;;;;8.95;2.17;;;;;;;6.45;100.00;101899.19;5026541;28;20033;-69
2022/11/27 07:54:27;;;;;;;7.15;2.50;;;;;;;6.48;100.00;101894.97;5020415;28;20096;-68
2022/11/27 07:56:52;;;;;;;8.10;2.33;;;;;;;6.53;100.00;101890.00;5017537;28;20114;-68
2022/11/27 07:59:17;;;;;;;12.48;2.65;;;;;;;6.51;100.00;101891.63;5016551;28;20045;-69
2022/11/27 08:01:43;;;;;;;6.65;2.42;;;;;;;6.48;100.00;101888.88;5016093;28;20026;-68
2022/11/27 08:04:09;;;;;;;6.82;2.30;;;;;;;6.48;100.00;101896.72;5020226;28;20034;-69
2022/11/27 08:06:34;;;;;;;5.15;2.10;;;;;;;6.54;100.00;101889.19;5017107;28;20121;-69
2022/11/27 08:08:59;;;;;;;12.73;2.50;;;;;;;6.55;100.00;101888.34;5018646;28;20018;-69
2022/11/27 08:11:28;;;;;;;3.28;1.95;;;;;;;6.53;100.00;101884.78;5017548;28;20432;-69
2022/11/27 08:13:56;;;;;;;8.45;2.50;;;;;;;6.56;100.00;101890.16;5022234;28;20038;-69
2022/11/27 08:16:21;;;;;;;6.55;2.45;;;;;;;6.61;100.00;101874.69;5018849;28;20029;-69
2022/11/27 08:18:47;;;;;;;7.93;2.75;;;;;;;6.66;100.00;101887.19;5021576;28;20033;-69
2022/11/27 08:21:12;;;;;;;6.55;2.67;;;;;;;6.66;100.00;101879.34;5019391;28;20406;-69
2022/11/27 08:23:38;;;;;;;6.60;2.67;;;;;;;6.58;100.00;101880.66;5021530;28;20433;-68
2022/11/27 08:26:04;;;;;;;6.15;3.20;;;;;;;6.58;100.00;101883.28;5018993;28;20036;-68
2022/11/27 08:28:30;;;;;;;6.45;2.00;;;;;;;6.58;100.00;101880.66;5026843;28;20034;-68
2022/11/27 08:31:01;;;;;;;9.80;2.53;;;;;;;6.57;100.00;101886.72;5018582;28;20029;-70
2022/11/27 08:33:26;;;;;;;6.53;2.90;;;;;;;6.55;100.00;101885.72;5012937;28;20108;-69
2022/11/27 08:35:51;;;;;;;6.47;2.90;;;;;;;6.55;100.00;101884.03;5011937;28;20109;-69
2022/11/27 08:38:17;;;;;;;8.38;2.80;;;;;;;6.56;100.00;101879.69;5021763;28;20024;-68
2022/11/27 08:40:42;;;;;;;9.40;3.13;;;;;;;6.55;100.00;101872.66;5021058;28;20445;-70
2022/11/27 08:43:08;;;;;;;9.10;3.08;;;;;;;6.44;100.00;101874.72;5040163;28;20121;-69
2022/11/27 08:45:33;;;;;;;6.28;2.53;;;;;;;6.46;100.00;101886.19;5034518;28;20033;-70
2022/11/27 08:47:58;;;;;;;10.43;3.00;;;;;;;6.47;100.00;101879.22;5024037;28;20027;-69
2022/11/27 08:50:24;;;;;;;12.77;3.50;;;;;;;6.41;100.00;101875.47;5023201;28;20037;-68
2022/11/27 08:52:49;;;;;;;7.88;3.03;;;;;;;6.45;100.00;101876.53;5020978;28;20029;-70
2022/11/27 08:55:15;;;;;;;7.03;2.80;;;;;;;6.41;100.00;101885.03;5014355;28;20458;-68
2022/11/27 08:57:40;;;;;;;8.27;2.85;;;;;;;6.37;100.00;101873.53;5020720;28;20049;-70
2022/11/27 09:00:06;;;;;;;10.00;3.22;;;;;;;6.37;100.00;101880.47;5022694;28;20172;-69
2022/11/27 09:02:33;;;;;;;5.13;3.05;;;;;;;6.36;100.00;101876.97;5018851;28;20026;-70
2022/11/27 09:04:58;;;;;;;6.75;2.50;;;;;;;6.34;100.00;101873.38;5033143;28;20021;-70
2022/11/27 09:07:23;;;;;;;9.75;3.03;;;;;;;6.37;100.00;101878.75;5029767;28;20478;-69
2022/11/27 09:09:49;;;;;;;14.32;4.25;;;;;;;6.34;100.00;101878.59;5024369;28;20060;-69
2022/11/27 09:12:14;;;;;;;11.65;3.13;;;;;;;6.32;100.00;101875.03;5023237;28;20030;-69
2022/11/27 09:14:40;;;;;;;12.43;3.92;;;;;;;6.31;100.00;101873.22;5030165;28;20139;-69
2022/11/27 09:17:05;;;;;;;7.30;3.08;;;;;;;6.34;100.00;101868.16;5017913;28;20030;-70
2022/11/27 09:19:31;;;;;;;6.53;3.05;;;;;;;6.32;100.00;101869.81;5018693;28;20024;-68
2022/11/27 09:21:56;;;;;;;11.15;3.67;;;;;;;6.32;100.00;101869.81;5031604;28;20370;-70
2022/11/27 09:24:21;;;;;;;11.10;3.30;;;;;;;6.32;100.00;101850.59;5036513;28;20516;-71
2022/11/27 09:26:47;;;;;;;10.20;3.45;;;;;;;6.35;100.00;101858.63;5031235;28;20033;-69
2022/11/27 09:29:12;;;;;;;10.90;3.75;;;;;;;6.35;100.00;101858.63;5040598;28;20021;-70
2022/11/27 09:31:37;;;;;;;11.95;4.65;;;;;;;6.28;100.00;101862.63;5028104;28;20049;-70
2022/11/27 09:34:04;;;;;;;13.38;3.63;;;;;;;6.23;100.00;101861.50;5025547;28;20057;-69
2022/11/27 09:36:32;;;;;;;7.70;3.55;;;;;;;6.26;100.00;101864.25;5017955;28;20029;-69
2022/11/27 09:38:59;;;;;;;11.77;3.60;;;;;;;6.26;100.00;101848.56;5025553;28;20090;-69
2022/11/27 09:41:38;;;;;;;9.32;3.47;;;;;;;6.28;100.00;101841.72;5017972;28;20877;-72
2022/11/27 09:44:28;;;;;;;8.88;3.47;;;;;;;6.30;100.00;101831.34;5024135;28;20168;-70
2022/11/27 09:46:55;;;;;;;11.85;4.03;;;;;;;6.31;100.00;101834.03;5028084;28;20025;-70
2022/11/27 09:49:39;;;;;;;14.25;4.32;;;;;;;6.32;100.00;101838.44;5020882;28;20030;-71
2022/11/27 09:52:35;;;;;;;9.07;3.72;;;;;;;6.32;100.00;101833.22;5031491;28;20025;-69
2022/11/27 09:55:13;;;;;;;12.48;4.18;;;;;;;6.33;100.00;101837.59;5011937;28;20040;-69
2022/11/27 09:57:40;;;;;;;11.75;4.20;;;;;;;6.34;100.00;101830.66;5023137;28;20045;-69
2022/11/27 10:00:14;;;;;;;15.30;4.03;;;;;;;6.30;100.00;101837.44;5024452;28;20049;-69
2022/11/27 10:02:44;;;;;;;11.20;3.10;;;;;;;6.34;100.00;101823.72;5022436;28;20025;-70
2022/11/27 10:05:18;;;;;;;8.77;3.58;;;;;;;6.38;100.00;101828.28;5026632;28;20033;-71
2022/11/27 10:07:57;;;;;;;10.15;3.95;;;;;;;6.40;100.00;101829.25;5031201;28;20125;-70
2022/11/27 10:10:37;;;;;;;6.72;3.10;;;;;;;6.36;100.00;101824.69;5020355;28;20213;-70
2022/11/27 10:13:17;;;;;;;11.30;4.22;;;;;;;6.40;100.00;101818.81;5016419;28;20083;-68
2022/11/27 10:16:08;;;;;;;11.18;4.07;;;;;;;6.43;100.00;101823.28;5014154;28;20041;-70
2022/11/27 10:18:46;;;;;;;8.88;4.00;;;;;;;6.43;100.00;101815.44;5016561;28;20029;-69
2022/11/27 10:21:35;;;;;;;12.20;4.03;;;;;;;6.46;100.00;101812.06;5024377;28;20366;-70
2022/11/27 10:24:12;;;;;;;21.38;5.25;;;;;;;6.53;100.00;101814.16;5021703;28;20444;-69
2022/11/27 10:26:44;;;;;;;10.77;3.88;;;;;;;6.52;100.00;101809.75;5017802;28;20022;-69
2022/11/27 10:29:25;;;;;;;8.23;4.00;;;;;;;6.52;100.00;101809.75;5031279;28;20059;-68
2022/11/27 10:31:56;;;;;;;11.65;4.13;;;;;;;6.55;100.00;101804.66;5024436;28;20029;-70
2022/11/27 10:34:38;;;;;;;10.80;4.43;;;;;;;6.56;100.00;101803.84;5033685;28;20163;-70
2022/11/27 10:37:14;;;;;;;10.90;3.83;;;;;;;6.55;100.00;101802.97;5025037;28;20036;-69
2022/11/27 10:39:53;;;;;;;11.90;5.03;;;;;;;6.48;100.00;101802.59;5012897;28;20349;-69
2022/11/27 10:42:30;;;;;;;17.65;4.43;;;;;;;6.46;100.00;101792.06;5014772;28;20034;-69
2022/11/27 10:45:03;;;;;;;12.93;4.68;;;;;;;6.51;100.00;101784.41;5013184;28;20034;-69
2022/11/27 10:47:28;;;;;;;10.88;4.57;;;;;;;6.54;100.00;101782.84;5015090;28;20128;-69
2022/11/27 10:49:54;;;;;;;9.60;5.03;;;;;;;6.56;100.00;101777.69;5030403;28;20164;-69
2022/11/27 10:52:20;;;;;;;11.18;4.93;;;;;;;6.61;100.00;101773.59;5019324;28;20033;-71
2022/11/27 10:54:55;;;;;;;13.73;5.68;;;;;;;6.65;100.00;101754.59;5012382;28;20026;-71
2022/11/27 10:57:45;;;;;;;17.90;5.93;;;;;;;6.69;100.00;101756.53;5015740;28;20018;-68
2022/11/27 11:00:18;;;;;;;16.27;5.47;;;;;;;6.71;100.00;101754.88;5025329;28;20076;-70
2022/11/27 11:02:44;;;;;;;18.38;5.65;;;;;;;6.70;100.00;101742.66;5020427;28;20887;-71
2022/11/27 11:05:17;;;;;;;11.93;5.30;;;;;;;6.66;100.00;101745.94;5031779;28;20155;-68
2022/11/27 11:07:54;;;;;;;12.32;5.78;;;;;;;6.69;100.00;101743.47;5020042;28;20080;-69
2022/11/27 11:10:32;;;;;;;11.10;4.50;;;;;;;6.70;100.00;101737.41;5031540;28;20030;-69
2022/11/27 11:13:13;;;;;;;17.52;6.03;;;;;;;6.81;100.00;101735.31;5035704;28;20450;-69
2022/11/27 11:15:58;;;;;;;10.50;5.03;;;;;;;6.83;100.00;101737.97;5030963;28;20025;-69
2022/11/27 11:18:30;;;;;;;14.70;5.40;;;;;;;6.79;100.00;101741.28;5021639;28;20033;-69
2022/11/27 11:20:58;;;;;;;12.13;5.57;;;;;;;6.80;100.00;101732.63;5012467;28;20033;-70
2022/11/27 11:23:29;;;;;;;11.02;5.10;;;;;;;6.80;100.00;101730.00;5013675;28;20037;-70
2022/11/27 11:25:58;;;;;;;13.50;5.10;;;;;;;6.75;100.00;101724.53;5013784;28;20482;-70
2022/11/27 11:28:24;;;;;;;11.40;5.00;;;;;;;6.78;100.00;101729.03;5015561;28;20030;-69